Time;durP1;ratioP1;P1;durP2;ratioP2;P2;SDS_P1;SDS_P2;PMS_P1;PMS_P2;Temp;Humidity;BMP_temperature;BMP_pressure;BME280_temperature;BME280_humidity;BME280_pressure;Samples;Min_cycle;Max_cycle;Signal;HPM_P1;HPM_P2
2023/06/04 00:02:05;;;;;;;1.50;1.40;;;19.00;99.90;;;;;;5071269;28;20234;-65
2023/06/04 00:04:32;;;;;;;1.38;1.30;;;19.00;99.90;;;;;;5071817;28;20207;-64
2023/06/04 00:07:00;;;;;;;1.23;1.23;;;19.00;99.90;;;;;;5071743;28;20207;-63
2023/06/04 00:09:27;;;;;;;1.40;1.40;;;19.00;99.90;;;;;;5071059;28;20230;-64
2023/06/04 00:11:54;;;;;;;1.27;1.27;;;19.00;99.90;;;;;;5071754;28;20237;-64
2023/06/04 00:14:21;;;;;;;1.50;1.40;;;19.00;99.90;;;;;;5072440;28;20203;-63
2023/06/04 00:16:48;;;;;;;1.50;1.40;;;19.00;99.90;;;;;;5076577;28;20199;-64
2023/06/04 00:19:14;;;;;;;1.30;1.30;;;19.00;99.90;;;;;;5076505;28;20214;-66
2023/06/04 00:21:41;;;;;;;1.80;1.70;;;18.90;99.90;;;;;;5085570;28;20310;-64
2023/06/04 00:24:12;;;;;;;1.52;1.42;;;18.80;99.90;;;;;;5079382;28;20621;-65
2023/06/04 00:26:39;;;;;;;1.40;1.40;;;18.70;99.90;;;;;;5076025;28;20289;-66
2023/06/04 00:29:06;;;;;;;1.77;1.67;;;18.60;99.90;;;;;;5074496;28;20281;-64
2023/06/04 00:31:32;;;;;;;1.40;1.40;;;18.50;99.90;;;;;;5075883;28;20222;-64
2023/06/04 00:33:59;;;;;;;1.30;1.30;;;18.30;99.90;;;;;;5075514;28;20741;-64
2023/06/04 00:36:26;;;;;;;1.38;1.38;;;18.20;99.90;;;;;;5075016;28;20223;-64
2023/06/04 00:38:53;;;;;;;1.33;1.30;;;18.10;99.90;;;;;;5075686;28;20208;-64
2023/06/04 00:41:21;;;;;;;1.20;1.20;;;18.00;99.90;;;;;;5074815;28;20379;-65
2023/06/04 00:43:56;;;;;;;1.58;1.50;;;18.00;99.90;;;;;;5075835;28;20285;-64
2023/06/04 00:46:25;;;;;;;1.63;1.52;;;18.00;99.90;;;;;;5055280;28;20693;-65
2023/06/04 00:48:53;;;;;;;1.45;1.38;;;18.10;99.90;;;;;;5055406;28;20204;-64
2023/06/04 00:51:20;;;;;;;1.50;1.40;;;18.10;99.90;;;;;;5054106;28;20281;-65
2023/06/04 00:53:48;;;;;;;1.45;1.35;;;18.10;99.90;;;;;;5055020;28;20212;-64
2023/06/04 00:56:15;;;;;;;1.60;1.50;;;18.00;99.90;;;;;;5054485;28;20227;-66
2023/06/04 00:58:43;;;;;;;1.42;1.42;;;17.90;99.90;;;;;;5054798;28;20584;-65
2023/06/04 01:01:20;;;;;;;1.52;1.42;;;17.90;99.90;;;;;;5053786;28;20717;-65
2023/06/04 01:03:50;;;;;;;1.50;1.40;;;17.80;99.90;;;;;;5054877;28;20291;-65
2023/06/04 01:06:24;;;;;;;1.58;1.50;;;17.80;99.90;;;;;;5055663;28;20222;-64
2023/06/04 01:08:54;;;;;;;1.50;1.40;;;17.70;99.90;;;;;;5055115;28;20214;-64
2023/06/04 01:11:31;;;;;;;1.50;1.50;;;17.60;99.90;;;;;;5054318;28;20381;-64
2023/06/04 01:13:59;;;;;;;1.73;1.63;;;17.60;99.90;;;;;;5054870;28;20229;-66
2023/06/04 01:16:29;;;;;;;1.15;1.15;;;17.50;99.90;;;;;;5055036;28;20266;-65
2023/06/04 01:18:59;;;;;;;1.67;1.58;;;17.50;99.90;;;;;;5054142;28;20617;-66
2023/06/04 01:21:29;;;;;;;1.63;1.52;;;17.50;99.90;;;;;;5054435;28;20281;-65
2023/06/04 01:24:00;;;;;;;1.40;1.40;;;17.40;99.90;;;;;;5049892;28;20258;-64
2023/06/04 01:26:28;;;;;;;1.67;1.58;;;17.50;99.90;;;;;;5054785;28;20295;-64
2023/06/04 01:28:57;;;;;;;1.55;1.50;;;17.40;99.90;;;;;;5054854;28;20214;-66
2023/06/04 01:31:26;;;;;;;1.40;1.40;;;17.30;99.90;;;;;;5052895;28;20251;-65
2023/06/04 01:33:54;;;;;;;1.60;1.50;;;17.30;99.90;;;;;;5054170;28;20219;-64
2023/06/04 01:36:21;;;;;;;1.50;1.40;;;17.40;99.90;;;;;;5055344;28;20224;-66
2023/06/04 01:38:48;;;;;;;1.40;1.30;;;17.20;99.90;;;;;;5074606;28;20199;-65
2023/06/04 01:41:14;;;;;;;1.83;1.73;;;17.20;99.90;;;;;;5073791;28;20824;-65
2023/06/04 01:43:41;;;;;;;1.50;1.40;;;17.10;99.90;;;;;;5074805;28;20604;-66
2023/06/04 01:46:08;;;;;;;1.20;1.20;;;17.10;99.90;;;;;;5074646;28;20209;-65
2023/06/04 01:48:37;;;;;;;1.40;1.40;;;17.00;99.90;;;;;;5053809;28;20623;-65
2023/06/04 01:51:05;;;;;;;1.48;1.38;;;17.10;99.90;;;;;;5053958;28;20278;-65
2023/06/04 01:53:32;;;;;;;1.60;1.50;;;17.10;99.90;;;;;;5054133;28;20206;-65
2023/06/04 01:55:59;;;;;;;1.55;1.45;;;17.10;99.90;;;;;;5053838;28;20228;-65
2023/06/04 01:58:27;;;;;;;1.40;1.40;;;16.90;99.90;;;;;;5053940;28;20219;-65
2023/06/04 02:00:54;;;;;;;1.50;1.40;;;16.80;99.90;;;;;;5060562;28;20771;-65
2023/06/04 02:03:21;;;;;;;1.52;1.42;;;16.70;99.90;;;;;;5073528;28;20195;-65
2023/06/04 02:05:50;;;;;;;1.75;1.65;;;16.60;99.90;;;;;;5066264;28;20195;-65
2023/06/04 02:08:18;;;;;;;1.33;1.33;;;16.60;99.90;;;;;;5073644;28;20217;-65
2023/06/04 02:10:47;;;;;;;1.70;1.60;;;16.50;99.90;;;;;;5072965;28;20235;-66
2023/06/04 02:13:14;;;;;;;1.48;1.38;;;16.50;99.90;;;;;;5070773;28;20208;-66
2023/06/04 02:15:41;;;;;;;1.52;1.50;;;16.50;99.90;;;;;;5077089;28;20239;-65
2023/06/04 02:18:16;;;;;;;1.27;1.27;;;16.30;99.90;;;;;;5076115;28;20213;-65
2023/06/04 02:20:44;;;;;;;1.60;1.50;;;16.30;99.90;;;;;;5076537;28;20234;-66
2023/06/04 02:23:14;;;;;;;1.60;1.50;;;16.30;99.90;;;;;;5077370;28;20261;-65
2023/06/04 02:25:41;;;;;;;1.50;1.48;;;16.40;99.90;;;;;;5079002;28;20200;-64
2023/06/04 02:28:08;;;;;;;1.70;1.60;;;16.50;99.90;;;;;;5082203;28;20629;-64
2023/06/04 02:30:35;;;;;;;1.70;1.60;;;16.40;99.90;;;;;;5079934;28;20255;-65
2023/06/04 02:33:02;;;;;;;1.75;1.65;;;16.30;99.90;;;;;;5080946;28;20238;-65
2023/06/04 02:35:29;;;;;;;1.40;1.40;;;16.20;99.90;;;;;;5080025;28;20223;-65
2023/06/04 02:37:57;;;;;;;1.60;1.50;;;16.10;99.90;;;;;;5077269;28;20294;-63
2023/06/04 02:40:26;;;;;;;1.30;1.30;;;16.30;99.90;;;;;;5074248;28;20231;-67
2023/06/04 02:42:53;;;;;;;1.50;1.40;;;16.00;99.90;;;;;;5074302;28;20209;-67
2023/06/04 02:45:20;;;;;;;1.55;1.45;;;16.00;99.90;;;;;;5074920;28;20297;-64
2023/06/04 02:47:47;;;;;;;1.40;1.40;;;16.10;99.90;;;;;;5074928;28;20203;-63
2023/06/04 02:50:15;;;;;;;1.60;1.50;;;16.00;99.90;;;;;;5075258;28;20225;-65
2023/06/04 02:52:42;;;;;;;1.60;1.50;;;16.00;99.90;;;;;;5080635;28;20751;-65
2023/06/04 02:55:11;;;;;;;1.60;1.50;;;15.90;99.90;;;;;;5074129;28;20203;-65
2023/06/04 02:57:41;;;;;;;1.52;1.42;;;15.90;99.90;;;;;;5074267;28;20207;-63
2023/06/04 03:00:12;;;;;;;1.50;1.40;;;15.90;99.90;;;;;;5075580;28;20248;-64
2023/06/04 03:02:40;;;;;;;1.30;1.30;;;15.90;99.90;;;;;;5083727;28;20650;-63
2023/06/04 03:05:09;;;;;;;1.60;1.55;;;15.80;99.90;;;;;;5085805;28;20207;-65
2023/06/04 03:07:35;;;;;;;1.63;1.52;;;15.70;99.90;;;;;;5085498;28;20203;-65
2023/06/04 03:10:02;;;;;;;1.40;1.40;;;15.70;99.90;;;;;;5076592;28;20238;-64
2023/06/04 03:12:29;;;;;;;1.60;1.50;;;15.60;99.90;;;;;;5072429;28;20544;-65
2023/06/04 03:14:57;;;;;;;1.67;1.60;;;15.70;99.90;;;;;;5072277;28;20268;-66
2023/06/04 03:17:24;;;;;;;1.30;1.30;;;15.60;99.90;;;;;;5072123;28;20231;-65
2023/06/04 03:19:51;;;;;;;1.50;1.40;;;15.60;99.90;;;;;;5072028;28;20207;-65
2023/06/04 03:22:18;;;;;;;1.30;1.30;;;15.60;99.90;;;;;;5075334;28;20223;-65
2023/06/04 03:24:45;;;;;;;2.03;1.50;;;15.60;99.90;;;;;;5081369;28;20294;-65
2023/06/04 03:27:12;;;;;;;1.67;1.58;;;15.80;99.90;;;;;;5079251;28;20200;-65
2023/06/04 03:29:39;;;;;;;1.60;1.50;;;15.90;99.90;;;;;;5071693;28;20738;-65
2023/06/04 03:32:09;;;;;;;1.58;1.55;;;16.00;99.90;;;;;;5071975;28;20227;-66
2023/06/04 03:34:35;;;;;;;1.65;1.55;;;15.90;99.90;;;;;;5072108;28;20211;-64
2023/06/04 03:37:02;;;;;;;1.70;1.60;;;15.90;99.90;;;;;;5072046;28;20219;-65
2023/06/04 03:39:29;;;;;;;1.58;1.50;;;16.00;99.90;;;;;;5071159;28;20297;-65
2023/06/04 03:41:56;;;;;;;1.70;1.60;;;15.90;99.90;;;;;;5072162;28;20285;-66
2023/06/04 03:44:23;;;;;;;1.63;1.52;;;16.00;99.90;;;;;;5071822;28;20206;-70
2023/06/04 03:46:50;;;;;;;1.77;1.67;;;16.00;99.90;;;;;;5072053;28;20207;-64
2023/06/04 03:49:19;;;;;;;1.60;1.50;;;16.00;99.90;;;;;;5071162;28;20296;-66
2023/06/04 03:51:46;;;;;;;1.40;1.40;;;16.10;99.90;;;;;;5071720;28;20771;-64
2023/06/04 03:54:16;;;;;;;1.55;1.50;;;16.30;99.90;;;;;;5071931;28;20207;-64
2023/06/04 03:56:44;;;;;;;1.40;1.40;;;16.20;99.90;;;;;;5071903;28;20317;-64
2023/06/04 03:59:11;;;;;;;1.60;1.50;;;16.10;99.90;;;;;;5071603;28;20207;-66
2023/06/04 04:01:38;;;;;;;1.60;1.50;;;16.10;99.90;;;;;;5069680;28;20243;-66
2023/06/04 04:04:05;;;;;;;1.50;1.50;;;16.10;99.90;;;;;;5061229;28;20204;-65
2023/06/04 04:06:33;;;;;;;1.60;1.50;;;16.10;99.90;;;;;;5070132;28;20720;-65
2023/06/04 04:09:00;;;;;;;1.58;1.58;;;16.10;99.90;;;;;;5072723;28;20670;-66
2023/06/04 04:11:27;;;;;;;1.50;1.40;;;16.10;99.90;;;;;;5073111;28;20223;-65
2023/06/04 04:13:54;;;;;;;1.80;1.70;;;16.10;99.90;;;;;;5071237;28;20551;-63
2023/06/04 04:16:21;;;;;;;1.63;1.52;;;16.10;99.90;;;;;;5069406;28;20219;-63
2023/06/04 04:18:48;;;;;;;1.60;1.50;;;16.10;99.90;;;;;;5067371;28;20736;-63
2023/06/04 04:21:14;;;;;;;1.50;1.50;;;16.10;99.90;;;;;;5072725;28;20233;-65
2023/06/04 04:23:43;;;;;;;1.30;1.30;;;16.00;99.90;;;;;;5073288;28;20294;-65
2023/06/04 04:26:11;;;;;;;1.48;1.48;;;16.00;99.90;;;;;;5073598;28;20287;-64
2023/06/04 04:28:38;;;;;;;1.55;1.45;;;16.00;99.90;;;;;;5073743;28;20215;-63
2023/06/04 04:31:06;;;;;;;1.52;1.42;;;16.00;99.90;;;;;;5072320;28;20226;-64
2023/06/04 04:33:36;;;;;;;1.70;1.60;;;16.30;99.90;;;;;;5072151;28;20570;-65
2023/06/04 04:36:04;;;;;;;1.30;1.30;;;16.10;99.90;;;;;;5073495;28;20669;-65
2023/06/04 04:38:33;;;;;;;1.30;1.30;;;16.20;99.90;;;;;;5080048;28;20207;-65
2023/06/04 04:41:01;;;;;;;1.73;1.60;;;16.20;99.90;;;;;;5071509;28;20227;-63
2023/06/04 04:43:33;;;;;;;1.55;1.45;;;16.30;99.90;;;;;;5072375;28;20211;-65
2023/06/04 04:46:00;;;;;;;1.40;1.40;;;16.30;99.90;;;;;;5071349;28;20579;-64
2023/06/04 04:48:27;;;;;;;1.60;1.52;;;16.30;99.90;;;;;;5071286;28;20295;-65
2023/06/04 04:50:54;;;;;;;1.45;1.40;;;16.40;99.90;;;;;;5070459;28;20234;-64
2023/06/04 04:53:21;;;;;;;1.60;1.60;;;16.40;99.90;;;;;;5071666;28;20208;-64
2023/06/04 04:55:48;;;;;;;1.90;1.80;;;16.40;99.90;;;;;;5071599;28;20295;-65
2023/06/04 04:58:18;;;;;;;1.42;1.42;;;16.60;99.90;;;;;;5071469;28;20207;-65
2023/06/04 05:00:45;;;;;;;1.70;1.60;;;16.60;99.90;;;;;;5070989;28;20219;-63
2023/06/04 05:03:12;;;;;;;1.60;1.50;;;16.70;99.90;;;;;;5075202;28;20290;-64
2023/06/04 05:05:39;;;;;;;1.70;1.60;;;16.70;99.90;;;;;;5075254;28;20303;-65
2023/06/04 05:08:06;;;;;;;1.50;1.50;;;16.70;99.90;;;;;;5075338;28;20203;-65
2023/06/04 05:10:35;;;;;;;1.52;1.52;;;16.80;99.90;;;;;;5075583;28;20227;-64
2023/06/04 05:13:04;;;;;;;1.90;1.80;;;17.00;99.90;;;;;;5075125;28;20253;-64
2023/06/04 05:15:32;;;;;;;1.70;1.60;;;17.30;99.90;;;;;;5076277;28;20203;-64
2023/06/04 05:18:01;;;;;;;1.67;1.58;;;17.50;99.90;;;;;;5075811;28;20241;-64
2023/06/04 05:20:28;;;;;;;1.60;1.50;;;17.70;99.90;;;;;;5074176;28;20737;-65
2023/06/04 05:22:56;;;;;;;1.80;1.70;;;17.90;99.90;;;;;;5075037;28;20207;-64
2023/06/04 05:25:23;;;;;;;1.58;1.48;;;17.90;99.90;;;;;;5080451;28;20222;-64
2023/06/04 05:27:50;;;;;;;1.67;1.58;;;17.80;99.90;;;;;;5081143;28;20670;-64
2023/06/04 05:30:17;;;;;;;1.35;1.35;;;17.80;99.90;;;;;;5075219;28;20227;-64
2023/06/04 05:32:45;;;;;;;1.63;1.52;;;17.70;99.90;;;;;;5084612;28;20207;-65
2023/06/04 05:35:12;;;;;;;1.42;1.40;;;17.70;99.90;;;;;;5091010;28;20223;-65
2023/06/04 05:37:40;;;;;;;1.52;1.42;;;17.50;99.90;;;;;;5089993;28;20263;-65
2023/06/04 05:40:13;;;;;;;1.45;1.38;;;17.40;99.90;;;;;;5089787;28;20195;-64
2023/06/04 05:42:40;;;;;;;1.58;1.50;;;17.40;99.90;;;;;;5090680;28;20276;-64
2023/06/04 05:45:09;;;;;;;2.20;1.63;;;17.50;99.90;;;;;;5084194;28;20215;-65
2023/06/04 05:47:36;;;;;;;1.52;1.42;;;17.50;99.90;;;;;;5074420;28;20211;-65
2023/06/04 05:50:06;;;;;;;1.60;1.50;;;17.70;99.90;;;;;;5073436;28;20238;-64
2023/06/04 05:52:34;;;;;;;1.60;1.50;;;17.90;99.90;;;;;;5074240;28;20207;-64
2023/06/04 05:55:00;;;;;;;1.58;1.52;;;18.10;99.90;;;;;;5074053;28;20648;-65
2023/06/04 05:57:27;;;;;;;1.50;1.50;;;18.20;99.90;;;;;;5074362;28;20667;-64
2023/06/04 05:59:54;;;;;;;1.48;1.48;;;18.40;99.90;;;;;;5073697;28;20204;-65
2023/06/04 06:02:21;;;;;;;1.48;1.38;;;18.40;99.90;;;;;;5070757;28;20251;-65
2023/06/04 06:04:48;;;;;;;1.60;1.50;;;18.70;99.90;;;;;;5077681;28;20286;-65
2023/06/04 06:07:16;;;;;;;1.20;1.20;;;18.50;99.90;;;;;;5075661;28;20195;-65
2023/06/04 06:09:43;;;;;;;1.65;1.55;;;18.30;99.90;;;;;;5074881;28;20578;-64
2023/06/04 06:12:10;;;;;;;1.35;1.30;;;18.10;99.90;;;;;;5079377;28;20295;-65
2023/06/04 06:14:37;;;;;;;1.60;1.50;;;18.00;99.90;;;;;;5077335;28;20214;-64
2023/06/04 06:17:04;;;;;;;2.22;1.70;;;17.90;99.90;;;;;;5073874;28;20234;-64
2023/06/04 06:19:31;;;;;;;1.30;1.30;;;18.00;99.90;;;;;;5072035;28;20306;-64
2023/06/04 06:21:59;;;;;;;1.65;1.30;;;18.20;99.90;;;;;;5080661;28;20682;-66
2023/06/04 06:24:27;;;;;;;1.80;1.70;;;18.50;99.90;;;;;;5073844;28;20735;-64
2023/06/04 06:26:54;;;;;;;2.03;1.55;;;18.60;99.90;;;;;;5075334;28;20231;-65
2023/06/04 06:29:21;;;;;;;1.55;1.45;;;18.80;99.90;;;;;;5073543;28;20208;-65
2023/06/04 06:31:47;;;;;;;1.58;1.48;;;18.90;99.90;;;;;;5078980;28;20245;-65
2023/06/04 06:34:14;;;;;;;1.30;1.30;;;18.90;99.90;;;;;;5065698;28;20200;-65
2023/06/04 06:36:41;;;;;;;1.50;1.40;;;18.80;99.90;;;;;;5056387;28;20215;-65
2023/06/04 06:39:09;;;;;;;1.40;1.38;;;18.80;99.90;;;;;;5068323;28;20202;-65
2023/06/04 06:41:38;;;;;;;1.35;1.30;;;18.90;99.90;;;;;;5063116;28;20230;-66
2023/06/04 06:44:05;;;;;;;2.97;1.50;;;18.90;99.90;;;;;;5076416;28;20210;-64
2023/06/04 06:46:32;;;;;;;1.70;1.60;;;19.10;99.90;;;;;;5054339;28;20278;-64
2023/06/04 06:48:59;;;;;;;1.60;1.50;;;19.10;99.90;;;;;;5074116;28;20253;-64
2023/06/04 06:51:26;;;;;;;1.50;1.40;;;19.00;99.90;;;;;;5093005;28;20226;-66
2023/06/04 06:53:53;;;;;;;1.65;1.55;;;18.90;99.90;;;;;;5096611;28;20302;-65
2023/06/04 06:56:20;;;;;;;1.58;1.48;;;18.80;99.90;;;;;;5097843;28;20290;-65
2023/06/04 06:58:48;;;;;;;1.70;1.60;;;19.00;99.90;;;;;;5092972;28;20207;-64
2023/06/04 07:01:15;;;;;;;1.50;1.40;;;19.30;99.90;;;;;;5092115;28;20228;-66
2023/06/04 07:03:42;;;;;;;1.40;1.30;;;19.50;99.90;;;;;;5094594;28;20241;-64
2023/06/04 07:06:09;;;;;;;1.50;1.40;;;19.70;99.90;;;;;;5076007;28;20326;-65
2023/06/04 07:08:36;;;;;;;1.42;1.30;;;19.80;99.90;;;;;;5066675;28;20207;-64
2023/06/04 07:11:04;;;;;;;1.73;1.40;;;19.80;99.90;;;;;;5071379;28;20223;-65
2023/06/04 07:13:32;;;;;;;1.30;1.30;;;20.00;99.90;;;;;;5072211;28;20290;-65
2023/06/04 07:16:00;;;;;;;1.48;1.40;;;20.20;99.90;;;;;;5065187;28;20246;-64
2023/06/04 07:18:27;;;;;;;1.35;1.35;;;20.30;99.90;;;;;;5066066;28;20250;-64
2023/06/04 07:20:54;;;;;;;1.63;1.52;;;20.40;99.90;;;;;;5060600;28;20277;-64
2023/06/04 07:23:21;;;;;;;1.50;1.40;;;20.50;99.90;;;;;;5067593;28;20287;-65
2023/06/04 07:25:48;;;;;;;1.50;1.40;;;20.50;99.90;;;;;;5063010;28;20209;-66
2023/06/04 07:28:15;;;;;;;1.58;1.50;;;20.50;99.90;;;;;;5073126;28;20671;-65
2023/06/04 07:30:42;;;;;;;1.40;1.30;;;20.50;99.90;;;;;;5071308;28;20319;-64
2023/06/04 07:33:10;;;;;;;1.38;1.30;;;20.60;99.90;;;;;;5072215;28;20273;-66
2023/06/04 07:35:37;;;;;;;1.20;1.20;;;20.60;99.90;;;;;;5066634;28;20207;-65
2023/06/04 07:38:04;;;;;;;1.55;1.30;;;20.30;99.90;;;;;;5061933;28;20223;-64
2023/06/04 07:40:31;;;;;;;3.22;2.92;;;20.50;99.90;;;;;;5071157;28;20630;-65
2023/06/04 07:42:58;;;;;;;1.40;1.40;;;20.50;99.90;;;;;;5068694;28;20217;-65
2023/06/04 07:45:25;;;;;;;2.65;1.55;;;20.10;99.90;;;;;;5071116;28;20202;-65
2023/06/04 07:47:52;;;;;;;2.13;1.30;;;20.10;99.90;;;;;;5071684;28;20247;-65
2023/06/04 07:50:20;;;;;;;1.33;1.23;;;20.40;99.90;;;;;;5077657;28;20258;-65
2023/06/04 07:52:47;;;;;;;1.42;1.25;;;20.60;99.90;;;;;;5074757;28;20238;-64
2023/06/04 07:55:14;;;;;;;1.63;1.52;;;20.80;99.90;;;;;;5072249;28;20243;-66
2023/06/04 07:57:41;;;;;;;1.60;1.50;;;20.40;99.90;;;;;;5072867;28;20665;-65
2023/06/04 08:00:09;;;;;;;1.58;1.45;;;20.40;99.90;;;;;;5055508;28;20200;-65
2023/06/04 08:02:36;;;;;;;1.42;1.33;;;20.30;99.90;;;;;;5052579;28;20242;-63
2023/06/04 08:05:03;;;;;;;1.33;1.23;;;20.40;99.90;;;;;;5064975;28;20207;-66
2023/06/04 08:07:31;;;;;;;2.25;1.50;;;20.40;99.90;;;;;;5072064;28;20690;-65
2023/06/04 08:09:58;;;;;;;1.90;1.48;;;20.50;99.90;;;;;;5071462;28;20203;-63
2023/06/04 08:12:25;;;;;;;1.40;1.38;;;20.50;99.90;;;;;;5071217;28;20222;-64
2023/06/04 08:14:55;;;;;;;1.50;1.40;;;20.50;99.90;;;;;;5072012;28;20242;-65
2023/06/04 08:17:21;;;;;;;1.63;1.50;;;20.50;99.90;;;;;;5072034;28;20215;-64
2023/06/04 08:19:48;;;;;;;1.50;1.40;;;20.30;99.90;;;;;;5070788;28;20744;-65
2023/06/04 08:22:15;;;;;;;1.20;1.20;;;20.40;99.90;;;;;;5071532;28;20321;-64
2023/06/04 08:24:44;;;;;;;1.13;1.13;;;20.50;99.90;;;;;;5071212;28;20209;-64
2023/06/04 08:27:12;;;;;;;1.23;1.23;;;20.40;99.90;;;;;;5071641;28;20239;-64
2023/06/04 08:29:40;;;;;;;1.00;1.00;;;20.60;99.90;;;;;;5071801;28;20308;-66
2023/06/04 08:32:07;;;;;;;1.15;1.15;;;20.90;99.90;;;;;;5070703;28;20247;-64
2023/06/04 08:34:34;;;;;;;1.27;1.20;;;20.90;99.90;;;;;;5071486;28;20210;-63
2023/06/04 08:37:01;;;;;;;1.92;1.20;;;21.00;99.90;;;;;;5072539;28;20207;-63
2023/06/04 08:39:28;;;;;;;1.10;1.10;;;21.00;99.90;;;;;;5074544;28;20700;-64
2023/06/04 08:42:01;;;;;;;1.05;1.00;;;21.00;99.90;;;;;;5075574;28;20223;-63
2023/06/04 08:44:29;;;;;;;1.20;1.20;;;21.10;99.90;;;;;;5074872;28;20191;-62
2023/06/04 08:47:02;;;;;;;1.50;1.40;;;21.10;99.90;;;;;;5066233;28;20254;-64
2023/06/04 08:49:34;;;;;;;1.05;1.05;;;21.20;99.90;;;;;;5062110;28;20196;-63
2023/06/04 08:52:01;;;;;;;1.02;1.00;;;21.30;99.90;;;;;;5075733;28;20223;-65
2023/06/04 08:54:28;;;;;;;1.52;1.33;;;21.50;99.90;;;;;;5073248;28;20682;-64
2023/06/04 08:56:57;;;;;;;1.50;1.40;;;21.90;99.90;;;;;;5074616;28;20217;-65
2023/06/04 08:59:24;;;;;;;1.48;1.38;;;22.10;99.90;;;;;;5074981;28;20326;-64
2023/06/04 09:01:54;;;;;;;1.20;1.20;;;21.80;99.90;;;;;;5075772;28;20227;-65
2023/06/04 09:04:21;;;;;;;1.30;1.30;;;21.90;99.90;;;;;;5075675;28;20212;-65
2023/06/04 09:06:49;;;;;;;1.40;1.30;;;21.80;99.90;;;;;;5074198;28;20299;-65
2023/06/04 09:09:17;;;;;;;1.00;1.00;;;21.80;99.90;;;;;;5074259;28;20195;-64
2023/06/04 09:11:50;;;;;;;2.40;1.30;;;22.00;99.90;;;;;;5074560;28;20227;-64
2023/06/04 09:14:19;;;;;;;1.30;1.20;;;22.00;99.90;;;;;;5074427;28;20757;-64
2023/06/04 09:16:47;;;;;;;1.00;1.00;;;22.00;99.90;;;;;;5074964;28;20307;-63
2023/06/04 09:19:14;;;;;;;2.05;1.25;;;22.10;99.90;;;;;;5074289;28;20226;-63
2023/06/04 09:21:49;;;;;;;1.50;1.40;;;22.00;99.90;;;;;;5074464;28;20285;-65
2023/06/04 09:24:16;;;;;;;2.13;1.38;;;21.80;99.90;;;;;;5075534;28;20206;-63
2023/06/04 09:26:42;;;;;;;1.20;1.20;;;22.10;99.90;;;;;;5075763;28;20294;-64
2023/06/04 09:29:10;;;;;;;1.17;1.17;;;22.40;99.90;;;;;;5074577;28;20582;-66
2023/06/04 09:31:39;;;;;;;1.17;1.17;;;22.60;99.90;;;;;;5074561;28;20310;-64
2023/06/04 09:34:07;;;;;;;1.13;1.10;;;22.40;99.90;;;;;;5073820;28;20704;-64
2023/06/04 09:36:35;;;;;;;1.60;1.50;;;22.50;99.90;;;;;;5074953;28;20211;-66
2023/06/04 09:39:03;;;;;;;1.20;1.20;;;22.70;99.90;;;;;;5074669;28;20272;-65
2023/06/04 09:41:30;;;;;;;1.20;1.20;;;22.70;99.90;;;;;;5074377;28;20834;-66
2023/06/04 09:44:05;;;;;;;1.48;1.38;;;22.80;99.90;;;;;;5074639;28;20686;-64
2023/06/04 09:46:32;;;;;;;1.25;1.10;;;23.00;99.90;;;;;;5075070;28;20273;-64
2023/06/04 09:49:05;;;;;;;1.30;1.20;;;23.00;99.90;;;;;;5076585;28;20205;-65
2023/06/04 09:51:32;;;;;;;1.13;1.13;;;23.20;99.90;;;;;;5078512;28;20250;-65
2023/06/04 09:54:00;;;;;;;1.20;1.20;;;23.20;99.90;;;;;;5075961;28;20556;-65
2023/06/04 09:56:28;;;;;;;1.30;1.20;;;23.20;99.90;;;;;;5076587;28;20302;-64
2023/06/04 09:59:00;;;;;;;1.20;1.20;;;23.30;99.90;;;;;;5074651;28;20288;-65
2023/06/04 10:01:29;;;;;;;1.30;1.30;;;23.60;99.90;;;;;;5074009;28;20242;-64
2023/06/04 10:03:58;;;;;;;1.17;1.17;;;23.30;99.90;;;;;;5075109;28;20256;-66
2023/06/04 10:06:27;;;;;;;1.00;1.00;;;23.50;99.90;;;;;;5076522;28;20210;-64
2023/06/04 10:08:56;;;;;;;1.10;1.10;;;23.80;99.90;;;;;;5080816;28;20710;-64
2023/06/04 10:11:27;;;;;;;1.00;1.00;;;24.10;99.90;;;;;;5073709;28;20289;-64
2023/06/04 10:13:57;;;;;;;2.45;1.88;;;24.10;99.90;;;;;;5074848;28;20184;-66
2023/06/04 10:16:26;;;;;;;1.33;1.23;;;24.20;99.90;;;;;;5076305;28;20261;-65
2023/06/04 10:19:02;;;;;;;1.40;1.35;;;24.40;99.90;;;;;;5084391;28;20223;-64
2023/06/04 10:21:34;;;;;;;1.05;1.05;;;24.40;99.90;;;;;;5089714;28;20777;-66
2023/06/04 10:24:01;;;;;;;1.15;1.15;;;24.40;99.90;;;;;;5084303;28;20221;-63
2023/06/04 10:26:29;;;;;;;1.20;1.10;;;24.40;99.90;;;;;;5081333;28;20234;-64
2023/06/04 10:28:58;;;;;;;1.38;1.00;;;24.60;99.90;;;;;;5073325;28;20561;-66
2023/06/04 10:31:24;;;;;;;1.23;1.13;;;24.70;99.90;;;;;;5072407;28;20301;-65
2023/06/04 10:33:55;;;;;;;1.17;1.08;;;24.90;99.90;;;;;;5073198;28;20290;-65
2023/06/04 10:36:23;;;;;;;2.13;1.50;;;25.10;99.90;;;;;;5072625;28;20211;-65
2023/06/04 10:38:52;;;;;;;1.33;1.23;;;25.10;99.90;;;;;;5072828;28;20233;-64
2023/06/04 10:41:21;;;;;;;1.80;1.70;;;24.90;99.90;;;;;;5066164;28;20225;-65
2023/06/04 10:43:49;;;;;;;1.40;1.30;;;25.10;99.90;;;;;;5073999;28;20579;-64
2023/06/04 10:46:17;;;;;;;1.30;1.15;;;25.00;99.90;;;;;;5075393;28;20215;-64
2023/06/04 10:48:51;;;;;;;0.98;0.98;;;25.00;99.90;;;;;;5076476;28;20301;-64
2023/06/04 10:51:30;;;;;;;1.55;1.10;;;25.30;99.90;;;;;;5077005;28;20223;-64
2023/06/04 10:53:59;;;;;;;1.10;1.10;;;25.20;99.90;;;;;;5076875;28;20221;-64
2023/06/04 10:56:28;;;;;;;1.40;1.30;;;25.10;99.90;;;;;;5075064;28;20183;-63
2023/06/04 10:58:55;;;;;;;1.05;1.05;;;25.40;99.90;;;;;;5060708;28;20232;-63
2023/06/04 11:01:26;;;;;;;1.35;1.35;;;25.60;99.90;;;;;;5052159;28;20813;-65
2023/06/04 11:03:53;;;;;;;1.00;1.00;;;25.80;99.90;;;;;;5052381;28;20212;-64
2023/06/04 11:06:21;;;;;;;1.00;1.00;;;25.60;99.90;;;;;;5052798;28;20693;-64
2023/06/04 11:08:48;;;;;;;1.10;1.10;;;25.80;99.90;;;;;;5052412;28;20200;-64
2023/06/04 11:11:17;;;;;;;1.00;1.00;;;26.00;99.90;;;;;;5049731;28;20224;-64
2023/06/04 11:13:44;;;;;;;1.40;1.30;;;26.00;99.90;;;;;;5068524;28;20210;-65
2023/06/04 11:16:16;;;;;;;1.95;1.85;;;26.20;99.90;;;;;;5072321;28;20221;-65
2023/06/04 11:18:44;;;;;;;1.10;1.10;;;26.10;99.90;;;;;;5071533;28;20223;-64
2023/06/04 11:21:14;;;;;;;1.25;1.15;;;25.90;99.90;;;;;;5069675;28;20231;-65
2023/06/04 11:23:41;;;;;;;1.13;0.90;;;26.00;99.90;;;;;;5070270;28;20222;-65
2023/06/04 11:26:08;;;;;;;1.70;1.20;;;26.00;99.90;;;;;;5072812;28;20211;-65
2023/06/04 11:28:36;;;;;;;1.10;1.10;;;26.20;99.90;;;;;;5072620;28;20726;-63
2023/06/04 11:31:05;;;;;;;1.30;1.20;;;26.40;99.90;;;;;;5071794;28;20227;-64
2023/06/04 11:33:42;;;;;;;1.17;1.17;;;26.30;99.90;;;;;;5072052;28;20681;-64
2023/06/04 11:36:09;;;;;;;1.00;1.00;;;26.10;99.90;;;;;;5072215;28;20287;-65
2023/06/04 11:38:36;;;;;;;1.20;1.20;;;26.20;99.90;;;;;;5072239;28;20229;-64
2023/06/04 11:41:05;;;;;;;1.35;1.30;;;26.40;99.90;;;;;;5071174;28;20286;-64
2023/06/04 11:43:34;;;;;;;1.35;1.25;;;26.50;99.90;;;;;;5072172;28;20218;-64
2023/06/04 11:46:06;;;;;;;1.00;1.00;;;26.60;99.90;;;;;;5077758;28;20286;-63
2023/06/04 11:48:34;;;;;;;1.05;1.05;;;26.60;99.90;;;;;;5072581;28;20286;-65
2023/06/04 11:51:08;;;;;;;2.38;1.50;;;26.70;99.90;;;;;;5072369;28;20227;-65
2023/06/04 11:53:37;;;;;;;1.48;1.10;;;26.80;99.90;;;;;;5072546;28;20183;-66
2023/06/04 11:56:05;;;;;;;1.00;1.00;;;26.80;99.90;;;;;;5072629;28;20285;-65
2023/06/04 11:58:33;;;;;;;1.10;1.00;;;26.80;99.90;;;;;;5072965;28;20596;-65
2023/06/04 12:01:02;;;;;;;1.05;1.02;;;26.90;99.90;;;;;;5072061;28;20280;-65
2023/06/04 12:03:36;;;;;;;1.30;1.20;;;27.00;99.90;;;;;;5072522;28;20199;-64
2023/06/04 12:06:15;;;;;;;1.00;1.00;;;27.10;99.90;;;;;;5072552;28;20245;-64
2023/06/04 12:08:47;;;;;;;1.52;1.40;;;27.10;99.90;;;;;;5072516;28;20207;-65
2023/06/04 12:11:26;;;;;;;1.10;1.10;;;27.10;99.90;;;;;;5073503;28;20674;-63
2023/06/04 12:13:53;;;;;;;1.27;1.20;;;27.20;99.90;;;;;;5076656;28;20217;-63
2023/06/04 12:16:21;;;;;;;0.98;0.98;;;27.10;99.90;;;;;;5081228;28;20266;-63
2023/06/04 12:18:49;;;;;;;1.27;1.17;;;27.20;99.90;;;;;;5079652;28;20221;-64
2023/06/04 12:21:26;;;;;;;1.23;1.23;;;27.20;99.90;;;;;;5076550;28;20235;-64
2023/06/04 12:23:54;;;;;;;2.42;1.38;;;27.40;99.90;;;;;;5077579;28;20227;-65
2023/06/04 12:26:28;;;;;;;1.08;1.08;;;27.40;99.90;;;;;;5077733;28;20311;-62
2023/06/04 12:29:02;;;;;;;1.38;1.27;;;27.50;99.90;;;;;;5078332;28;20199;-65
2023/06/04 12:31:31;;;;;;;1.38;1.27;;;27.70;99.90;;;;;;5076277;28;20222;-64
2023/06/04 12:34:00;;;;;;;1.10;1.10;;;27.60;99.90;;;;;;5058716;28;20215;-63
2023/06/04 12:36:28;;;;;;;1.60;1.50;;;27.70;99.90;;;;;;5055316;28;20200;-64
2023/06/04 12:38:56;;;;;;;1.38;1.27;;;27.80;99.90;;;;;;5055167;28;20289;-63
2023/06/04 12:41:23;;;;;;;1.48;1.38;;;27.70;99.90;;;;;;5054828;28;20230;-67
2023/06/04 12:43:50;;;;;;;1.10;1.10;;;27.70;99.90;;;;;;5055047;28;20208;-63
2023/06/04 12:46:17;;;;;;;1.60;1.50;;;27.90;99.90;;;;;;5055596;28;20663;-63
2023/06/04 12:48:45;;;;;;;1.50;1.40;;;28.00;99.90;;;;;;5056252;28;20204;-65
2023/06/04 12:51:12;;;;;;;1.20;1.20;;;27.80;99.90;;;;;;5058365;28;20232;-65
2023/06/04 12:53:40;;;;;;;1.40;1.30;;;27.90;99.90;;;;;;5055025;28;20577;-63